sensor_id;sensor_type;location;lat;lon;timestamp;P1;durP1;ratioP1;P2;durP2;ratioP2
30543;SDS011;43388;46.308;4.600;2023-03-26T00:01:07;7.68;;;3.47;;
30543;SDS011;43388;46.308;4.600;2023-03-26T00:03:34;5.20;;;3.30;;
30543;SDS011;43388;46.308;4.600;2023-03-26T00:06:04;5.22;;;3.17;;
30543;SDS011;43388;46.308;4.600;2023-03-26T00:08:32;5.30;;;2.63;;
30543;SDS011;43388;46.308;4.600;2023-03-26T00:10:58;6.40;;;3.22;;
30543;SDS011;43388;46.308;4.600;2023-03-26T00:13:24;5.95;;;3.22;;
30543;SDS011;43388;46.308;4.600;2023-03-26T00:15:50;5.22;;;3.13;;
30543;SDS011;43388;46.308;4.600;2023-03-26T00:18:17;7.32;;;3.15;;
30543;SDS011;43388;46.308;4.600;2023-03-26T00:20:49;5.10;;;3.15;;
30543;SDS011;43388;46.308;4.600;2023-03-26T00:23:15;5.68;;;2.95;;
30543;SDS011;43388;46.308;4.600;2023-03-26T00:25:41;6.40;;;3.60;;
30543;SDS011;43388;46.308;4.600;2023-03-26T00:28:09;4.05;;;3.10;;
30543;SDS011;43388;46.308;4.600;2023-03-26T00:30:35;4.07;;;3.08;;
30543;SDS011;43388;46.308;4.600;2023-03-26T00:33:05;10.43;;;3.50;;
30543;SDS011;43388;46.308;4.600;2023-03-26T00:35:34;6.20;;;3.10;;
30543;SDS011;43388;46.308;4.600;2023-03-26T00:38:00;5.93;;;3.35;;
30543;SDS011;43388;46.308;4.600;2023-03-26T00:40:26;8.93;;;3.78;;
30543;SDS011;43388;46.308;4.600;2023-03-26T00:42:54;8.25;;;3.22;;
30543;SDS011;43388;46.308;4.600;2023-03-26T00:45:20;4.75;;;3.20;;
30543;SDS011;43388;46.308;4.600;2023-03-26T00:47:47;6.43;;;3.65;;
30543;SDS011;43388;46.308;4.600;2023-03-26T00:50:13;6.63;;;3.35;;
30543;SDS011;43388;46.308;4.600;2023-03-26T00:52:42;8.95;;;3.33;;
30543;SDS011;43388;46.308;4.600;2023-03-26T00:55:10;5.38;;;2.92;;
30543;SDS011;43388;46.308;4.600;2023-03-26T00:57:36;5.70;;;3.03;;
30543;SDS011;43388;46.308;4.600;2023-03-26T01:00:08;6.88;;;3.38;;
30543;SDS011;43388;46.308;4.600;2023-03-26T01:02:35;5.20;;;2.97;;
30543;SDS011;43388;46.308;4.600;2023-03-26T01:05:33;9.32;;;2.90;;
30543;SDS011;43388;46.308;4.600;2023-03-26T01:07:49;6.32;;;3.58;;
30543;SDS011;43388;46.308;4.600;2023-03-26T01:10:15;5.93;;;2.80;;
30543;SDS011;43388;46.308;4.600;2023-03-26T01:12:41;6.43;;;3.72;;
30543;SDS011;43388;46.308;4.600;2023-03-26T01:15:08;5.18;;;3.55;;
30543;SDS011;43388;46.308;4.600;2023-03-26T01:17:34;6.90;;;3.20;;
30543;SDS011;43388;46.308;4.600;2023-03-26T01:22:40;5.07;;;2.97;;
30543;SDS011;43388;46.308;4.600;2023-03-26T01:25:07;5.50;;;3.58;;
30543;SDS011;43388;46.308;4.600;2023-03-26T01:28:06;5.18;;;2.90;;
30543;SDS011;43388;46.308;4.600;2023-03-26T01:30:39;4.78;;;3.00;;
30543;SDS011;43388;46.308;4.600;2023-03-26T01:45:46;5.95;;;3.42;;
30543;SDS011;43388;46.308;4.600;2023-03-26T01:48:14;6.90;;;3.53;;
30543;SDS011;43388;46.308;4.600;2023-03-26T01:50:40;6.43;;;3.88;;
30543;SDS011;43388;46.308;4.600;2023-03-26T01:53:06;8.75;;;3.75;;
30543;SDS011;43388;46.308;4.600;2023-03-26T01:55:37;7.07;;;3.75;;
30543;SDS011;43388;46.308;4.600;2023-03-26T02:00:32;4.70;;;3.35;;
30543;SDS011;43388;46.308;4.600;2023-03-26T02:05:46;8.38;;;3.28;;
30543;SDS011;43388;46.308;4.600;2023-03-26T02:08:23;7.18;;;3.45;;
30543;SDS011;43388;46.308;4.600;2023-03-26T02:10:56;3.95;;;3.30;;
30543;SDS011;43388;46.308;4.600;2023-03-26T02:13:24;7.00;;;3.10;;
30543;SDS011;43388;46.308;4.600;2023-03-26T02:16:00;4.93;;;3.63;;
30543;SDS011;43388;46.308;4.600;2023-03-26T02:18:26;5.22;;;3.30;;
30543;SDS011;43388;46.308;4.600;2023-03-26T02:21:06;5.10;;;3.08;;
30543;SDS011;43388;46.308;4.600;2023-03-26T02:23:36;7.63;;;3.45;;
30543;SDS011;43388;46.308;4.600;2023-03-26T02:26:05;7.15;;;4.43;;
30543;SDS011;43388;46.308;4.600;2023-03-26T02:28:31;4.93;;;2.88;;
30543;SDS011;43388;46.308;4.600;2023-03-26T02:30:57;8.10;;;3.08;;
30543;SDS011;43388;46.308;4.600;2023-03-26T02:33:25;4.90;;;2.70;;
30543;SDS011;43388;46.308;4.600;2023-03-26T02:35:51;4.63;;;2.60;;
30543;SDS011;43388;46.308;4.600;2023-03-26T02:38:17;6.28;;;2.92;;
30543;SDS011;43388;46.308;4.600;2023-03-26T02:40:43;4.15;;;2.72;;
30543;SDS011;43388;46.308;4.600;2023-03-26T02:43:09;4.45;;;2.67;;
30543;SDS011;43388;46.308;4.600;2023-03-26T02:45:35;9.65;;;3.45;;
30543;SDS011;43388;46.308;4.600;2023-03-26T02:48:01;5.75;;;3.03;;
30543;SDS011;43388;46.308;4.600;2023-03-26T02:50:28;7.00;;;3.35;;
30543;SDS011;43388;46.308;4.600;2023-03-26T02:52:56;7.07;;;4.32;;
30543;SDS011;43388;46.308;4.600;2023-03-26T02:55:22;6.60;;;3.40;;
30543;SDS011;43388;46.308;4.600;2023-03-26T02:57:48;4.78;;;3.30;;
30543;SDS011;43388;46.308;4.600;2023-03-26T03:00:14;3.80;;;2.97;;
30543;SDS011;43388;46.308;4.600;2023-03-26T03:02:41;5.07;;;3.33;;
30543;SDS011;43388;46.308;4.600;2023-03-26T03:05:08;6.20;;;4.15;;
30543;SDS011;43388;46.308;4.600;2023-03-26T03:07:35;7.05;;;3.50;;
30543;SDS011;43388;46.308;4.600;2023-03-26T03:10:03;6.95;;;4.30;;
30543;SDS011;43388;46.308;4.600;2023-03-26T03:12:32;8.73;;;3.65;;
30543;SDS011;43388;46.308;4.600;2023-03-26T03:14:58;5.82;;;3.63;;
30543;SDS011;43388;46.308;4.600;2023-03-26T03:17:24;4.68;;;3.88;;
30543;SDS011;43388;46.308;4.600;2023-03-26T03:19:50;4.60;;;3.45;;
30543;SDS011;43388;46.308;4.600;2023-03-26T03:22:17;6.03;;;3.55;;
30543;SDS011;43388;46.308;4.600;2023-03-26T03:24:44;7.43;;;3.60;;
30543;SDS011;43388;46.308;4.600;2023-03-26T03:27:10;4.25;;;3.83;;
30543;SDS011;43388;46.308;4.600;2023-03-26T03:29:37;11.00;;;4.95;;
30543;SDS011;43388;46.308;4.600;2023-03-26T03:32:03;4.72;;;4.15;;
30543;SDS011;43388;46.308;4.600;2023-03-26T03:34:29;7.88;;;5.00;;
30543;SDS011;43388;46.308;4.600;2023-03-26T03:36:55;5.55;;;3.92;;
30543;SDS011;43388;46.308;4.600;2023-03-26T03:39:21;6.40;;;4.13;;
30543;SDS011;43388;46.308;4.600;2023-03-26T03:41:47;6.95;;;4.15;;
30543;SDS011;43388;46.308;4.600;2023-03-26T03:44:14;8.98;;;4.40;;
30543;SDS011;43388;46.308;4.600;2023-03-26T03:46:41;6.53;;;4.45;;
30543;SDS011;43388;46.308;4.600;2023-03-26T03:49:07;7.43;;;4.47;;
30543;SDS011;43388;46.308;4.600;2023-03-26T03:51:33;9.40;;;4.82;;
30543;SDS011;43388;46.308;4.600;2023-03-26T03:53:59;8.70;;;4.47;;
30543;SDS011;43388;46.308;4.600;2023-03-26T03:56:25;7.30;;;4.20;;
30543;SDS011;43388;46.308;4.600;2023-03-26T03:58:51;6.07;;;4.38;;
30543;SDS011;43388;46.308;4.600;2023-03-26T04:01:17;7.78;;;4.07;;
30543;SDS011;43388;46.308;4.600;2023-03-26T04:03:46;6.65;;;3.92;;
30543;SDS011;43388;46.308;4.600;2023-03-26T04:06:12;9.70;;;5.28;;
30543;SDS011;43388;46.308;4.600;2023-03-26T04:08:43;6.97;;;5.07;;
30543;SDS011;43388;46.308;4.600;2023-03-26T04:11:10;9.63;;;4.63;;
30543;SDS011;43388;46.308;4.600;2023-03-26T04:13:36;8.10;;;3.80;;
30543;SDS011;43388;46.308;4.600;2023-03-26T04:16:02;8.10;;;4.65;;
30543;SDS011;43388;46.308;4.600;2023-03-26T04:18:28;5.75;;;3.88;;
30543;SDS011;43388;46.308;4.600;2023-03-26T04:20:56;5.63;;;3.63;;
30543;SDS011;43388;46.308;4.600;2023-03-26T04:23:26;9.65;;;3.72;;
30543;SDS011;43388;46.308;4.600;2023-03-26T04:25:53;6.85;;;4.50;;
30543;SDS011;43388;46.308;4.600;2023-03-26T04:28:41;6.63;;;4.07;;
30543;SDS011;43388;46.308;4.600;2023-03-26T04:31:07;6.28;;;3.88;;
30543;SDS011;43388;46.308;4.600;2023-03-26T04:33:36;14.77;;;4.70;;
30543;SDS011;43388;46.308;4.600;2023-03-26T04:36:03;8.60;;;3.70;;
30543;SDS011;43388;46.308;4.600;2023-03-26T04:38:30;6.82;;;3.92;;
30543;SDS011;43388;46.308;4.600;2023-03-26T04:40:58;6.85;;;3.53;;
30543;SDS011;43388;46.308;4.600;2023-03-26T04:43:24;7.30;;;3.47;;
30543;SDS011;43388;46.308;4.600;2023-03-26T04:45:51;7.07;;;4.03;;
30543;SDS011;43388;46.308;4.600;2023-03-26T04:48:17;9.57;;;3.88;;
30543;SDS011;43388;46.308;4.600;2023-03-26T04:50:44;11.82;;;3.75;;
30543;SDS011;43388;46.308;4.600;2023-03-26T04:53:14;9.73;;;4.53;;
30543;SDS011;43388;46.308;4.600;2023-03-26T04:55:46;8.70;;;4.30;;
30543;SDS011;43388;46.308;4.600;2023-03-26T04:58:14;7.30;;;4.38;;
30543;SDS011;43388;46.308;4.600;2023-03-26T05:00:40;5.90;;;4.32;;
30543;SDS011;43388;46.308;4.600;2023-03-26T05:03:10;7.40;;;3.38;;
30543;SDS011;43388;46.308;4.600;2023-03-26T05:05:36;11.13;;;4.40;;
30543;SDS011;43388;46.308;4.600;2023-03-26T05:08:02;6.90;;;3.97;;
30543;SDS011;43388;46.308;4.600;2023-03-26T05:10:28;7.70;;;3.60;;
30543;SDS011;43388;46.308;4.600;2023-03-26T05:12:54;5.88;;;3.85;;
30543;SDS011;43388;46.308;4.600;2023-03-26T05:15:20;6.72;;;3.15;;
30543;SDS011;43388;46.308;4.600;2023-03-26T05:17:46;5.90;;;3.42;;
30543;SDS011;43388;46.308;4.600;2023-03-26T05:22:40;5.35;;;2.65;;
30543;SDS011;43388;46.308;4.600;2023-03-26T05:25:07;4.75;;;2.88;;
30543;SDS011;43388;46.308;4.600;2023-03-26T05:27:33;4.78;;;2.75;;
30543;SDS011;43388;46.308;4.600;2023-03-26T05:30:00;5.43;;;2.80;;
30543;SDS011;43388;46.308;4.600;2023-03-26T05:32:26;3.38;;;2.60;;
30543;SDS011;43388;46.308;4.600;2023-03-26T05:34:52;3.00;;;2.50;;
30543;SDS011;43388;46.308;4.600;2023-03-26T05:37:18;3.78;;;2.40;;
30543;SDS011;43388;46.308;4.600;2023-03-26T05:39:51;3.67;;;2.28;;
30543;SDS011;43388;46.308;4.600;2023-03-26T05:42:17;4.25;;;3.08;;
30543;SDS011;43388;46.308;4.600;2023-03-26T05:44:43;6.18;;;2.70;;
30543;SDS011;43388;46.308;4.600;2023-03-26T05:47:09;2.88;;;2.60;;
30543;SDS011;43388;46.308;4.600;2023-03-26T05:49:35;3.92;;;2.50;;
30543;SDS011;43388;46.308;4.600;2023-03-26T05:52:01;2.83;;;2.35;;
30543;SDS011;43388;46.308;4.600;2023-03-26T05:54:27;5.57;;;2.78;;
30543;SDS011;43388;46.308;4.600;2023-03-26T05:56:53;4.15;;;2.40;;
30543;SDS011;43388;46.308;4.600;2023-03-26T05:59:21;4.22;;;1.90;;
30543;SDS011;43388;46.308;4.600;2023-03-26T06:01:47;4.13;;;2.40;;
30543;SDS011;43388;46.308;4.600;2023-03-26T06:04:15;5.10;;;2.88;;
30543;SDS011;43388;46.308;4.600;2023-03-26T06:06:41;3.92;;;2.60;;
30543;SDS011;43388;46.308;4.600;2023-03-26T06:09:08;3.47;;;2.42;;
30543;SDS011;43388;46.308;4.600;2023-03-26T06:11:37;5.78;;;2.90;;
30543;SDS011;43388;46.308;4.600;2023-03-26T06:14:03;3.08;;;2.50;;
30543;SDS011;43388;46.308;4.600;2023-03-26T06:16:29;4.80;;;2.55;;
30543;SDS011;43388;46.308;4.600;2023-03-26T06:18:55;4.90;;;2.78;;
30543;SDS011;43388;46.308;4.600;2023-03-26T06:21:21;5.75;;;2.67;;
30543;SDS011;43388;46.308;4.600;2023-03-26T06:23:47;4.15;;;2.55;;
30543;SDS011;43388;46.308;4.600;2023-03-26T06:26:14;5.70;;;2.90;;
30543;SDS011;43388;46.308;4.600;2023-03-26T06:28:40;5.57;;;3.40;;
30543;SDS011;43388;46.308;4.600;2023-03-26T06:31:06;4.13;;;2.90;;
30543;SDS011;43388;46.308;4.600;2023-03-26T06:33:32;7.43;;;3.88;;
30543;SDS011;43388;46.308;4.600;2023-03-26T06:35:58;5.47;;;2.83;;
30543;SDS011;43388;46.308;4.600;2023-03-26T06:38:24;5.43;;;2.92;;
30543;SDS011;43388;46.308;4.600;2023-03-26T06:40:50;3.72;;;3.25;;
30543;SDS011;43388;46.308;4.600;2023-03-26T06:43:16;2.72;;;2.30;;
30543;SDS011;43388;46.308;4.600;2023-03-26T06:45:42;7.03;;;3.40;;
30543;SDS011;43388;46.308;4.600;2023-03-26T06:48:08;7.40;;;3.70;;
30543;SDS011;43388;46.308;4.600;2023-03-26T06:50:35;6.63;;;3.10;;
30543;SDS011;43388;46.308;4.600;2023-03-26T06:53:01;4.65;;;2.80;;
30543;SDS011;43388;46.308;4.600;2023-03-26T06:55:27;9.38;;;3.50;;
30543;SDS011;43388;46.308;4.600;2023-03-26T06:57:53;6.78;;;2.83;;
30543;SDS011;43388;46.308;4.600;2023-03-26T07:00:22;6.72;;;3.33;;
30543;SDS011;43388;46.308;4.600;2023-03-26T07:02:48;8.10;;;3.65;;
30543;SDS011;43388;46.308;4.600;2023-03-26T07:05:14;8.65;;;3.42;;
30543;SDS011;43388;46.308;4.600;2023-03-26T07:07:40;6.85;;;3.63;;
30543;SDS011;43388;46.308;4.600;2023-03-26T07:10:06;12.88;;;3.60;;
30543;SDS011;43388;46.308;4.600;2023-03-26T07:12:32;18.65;;;4.45;;
30543;SDS011;43388;46.308;4.600;2023-03-26T07:14:59;11.32;;;3.45;;
30543;SDS011;43388;46.308;4.600;2023-03-26T07:17:26;9.75;;;3.30;;
30543;SDS011;43388;46.308;4.600;2023-03-26T07:19:52;8.27;;;3.45;;
30543;SDS011;43388;46.308;4.600;2023-03-26T07:22:19;8.32;;;3.08;;
30543;SDS011;43388;46.308;4.600;2023-03-26T07:24:46;6.40;;;3.00;;
30543;SDS011;43388;46.308;4.600;2023-03-26T07:32:32;6.57;;;2.75;;
30543;SDS011;43388;46.308;4.600;2023-03-26T07:35:09;8.52;;;3.47;;
30543;SDS011;43388;46.308;4.600;2023-03-26T07:37:49;6.15;;;3.25;;
30543;SDS011;43388;46.308;4.600;2023-03-26T07:40:27;7.00;;;3.25;;
30543;SDS011;43388;46.308;4.600;2023-03-26T07:45:41;6.68;;;3.35;;
30543;SDS011;43388;46.308;4.600;2023-03-26T07:48:11;8.40;;;3.40;;
30543;SDS011;43388;46.308;4.600;2023-03-26T07:50:39;10.23;;;3.53;;
30543;SDS011;43388;46.308;4.600;2023-03-26T07:53:05;7.43;;;3.30;;
30543;SDS011;43388;46.308;4.600;2023-03-26T07:55:31;5.20;;;3.45;;
30543;SDS011;43388;46.308;4.600;2023-03-26T08:05:42;6.53;;;3.47;;
30543;SDS011;43388;46.308;4.600;2023-03-26T08:08:19;5.30;;;3.13;;
30543;SDS011;43388;46.308;4.600;2023-03-26T08:21:25;8.93;;;3.83;;
30543;SDS011;43388;46.308;4.600;2023-03-26T08:24:04;8.50;;;4.07;;
30543;SDS011;43388;46.308;4.600;2023-03-26T08:31:51;8.98;;;3.60;;
30543;SDS011;43388;46.308;4.600;2023-03-26T08:34:17;11.23;;;3.50;;
30543;SDS011;43388;46.308;4.600;2023-03-26T08:36:43;8.35;;;2.95;;
30543;SDS011;43388;46.308;4.600;2023-03-26T08:39:10;8.30;;;3.47;;
30543;SDS011;43388;46.308;4.600;2023-03-26T09:05:44;12.90;;;5.53;;
30543;SDS011;43388;46.308;4.600;2023-03-26T09:41:57;8.95;;;3.20;;
30543;SDS011;43388;46.308;4.600;2023-03-26T10:04:43;7.45;;;3.30;;
30543;SDS011;43388;46.308;4.600;2023-03-26T10:12:20;7.55;;;3.20;;
30543;SDS011;43388;46.308;4.600;2023-03-26T10:20:05;4.32;;;3.03;;
30543;SDS011;43388;46.308;4.600;2023-03-26T10:38:28;7.40;;;3.20;;
30543;SDS011;43388;46.308;4.600;2023-03-26T10:46:20;7.13;;;3.20;;
30543;SDS011;43388;46.308;4.600;2023-03-26T10:51:58;5.78;;;2.88;;
30543;SDS011;43388;46.308;4.600;2023-03-26T10:54:17;8.73;;;3.78;;
30543;SDS011;43388;46.308;4.600;2023-03-26T10:56:47;8.65;;;3.53;;
30543;SDS011;43388;46.308;4.600;2023-03-26T10:59:14;5.38;;;3.25;;
30543;SDS011;43388;46.308;4.600;2023-03-26T11:14:26;4.40;;;2.90;;
30543;SDS011;43388;46.308;4.600;2023-03-26T11:32:10;5.22;;;2.70;;
30543;SDS011;43388;46.308;4.600;2023-03-26T11:34:59;4.90;;;2.70;;
30543;SDS011;43388;46.308;4.600;2023-03-26T11:37:33;8.40;;;3.20;;
30543;SDS011;43388;46.308;4.600;2023-03-26T11:40:03;5.50;;;2.88;;
30543;SDS011;43388;46.308;4.600;2023-03-26T11:42:33;6.57;;;2.70;;
30543;SDS011;43388;46.308;4.600;2023-03-26T11:44:59;5.38;;;2.97;;
30543;SDS011;43388;46.308;4.600;2023-03-26T11:47:31;8.80;;;2.28;;
30543;SDS011;43388;46.308;4.600;2023-03-26T11:49:58;7.13;;;2.92;;
30543;SDS011;43388;46.308;4.600;2023-03-26T11:52:25;4.22;;;2.65;;
30543;SDS011;43388;46.308;4.600;2023-03-26T11:54:52;2.97;;;2.63;;
30543;SDS011;43388;46.308;4.600;2023-03-26T11:57:19;4.97;;;2.85;;
30543;SDS011;43388;46.308;4.600;2023-03-26T11:59:55;4.30;;;3.38;;
30543;SDS011;43388;46.308;4.600;2023-03-26T12:02:24;5.15;;;2.63;;
30543;SDS011;43388;46.308;4.600;2023-03-26T12:05:02;5.18;;;2.70;;
30543;SDS011;43388;46.308;4.600;2023-03-26T12:07:31;6.20;;;2.67;;
30543;SDS011;43388;46.308;4.600;2023-03-26T12:09:58;6.55;;;2.50;;
30543;SDS011;43388;46.308;4.600;2023-03-26T12:12:25;4.05;;;2.20;;
30543;SDS011;43388;46.308;4.600;2023-03-26T12:14:51;5.82;;;2.40;;
30543;SDS011;43388;46.308;4.600;2023-03-26T12:17:27;5.55;;;2.30;;
30543;SDS011;43388;46.308;4.600;2023-03-26T12:19:54;3.60;;;2.10;;
30543;SDS011;43388;46.308;4.600;2023-03-26T12:22:28;9.98;;;2.03;;
30543;SDS011;43388;46.308;4.600;2023-03-26T12:25:14;4.47;;;2.50;;
30543;SDS011;43388;46.308;4.600;2023-03-26T12:27:46;4.30;;;2.90;;
30543;SDS011;43388;46.308;4.600;2023-03-26T12:30:26;4.35;;;2.63;;
30543;SDS011;43388;46.308;4.600;2023-03-26T12:33:14;5.70;;;2.58;;
30543;SDS011;43388;46.308;4.600;2023-03-26T12:35:40;6.82;;;1.92;;
30543;SDS011;43388;46.308;4.600;2023-03-26T12:40:38;6.22;;;2.50;;
30543;SDS011;43388;46.308;4.600;2023-03-26T12:43:19;4.95;;;2.05;;
30543;SDS011;43388;46.308;4.600;2023-03-26T12:45:47;3.40;;;2.53;;
30543;SDS011;43388;46.308;4.600;2023-03-26T12:48:14;4.68;;;2.33;;
30543;SDS011;43388;46.308;4.600;2023-03-26T12:50:55;5.70;;;2.22;;
30543;SDS011;43388;46.308;4.600;2023-03-26T13:06:30;5.65;;;2.72;;
30543;SDS011;43388;46.308;4.600;2023-03-26T13:09:41;4.05;;;2.40;;
30543;SDS011;43388;46.308;4.600;2023-03-26T13:19:33;7.18;;;2.15;;
30543;SDS011;43388;46.308;4.600;2023-03-26T13:24:34;9.55;;;2.97;;
30543;SDS011;43388;46.308;4.600;2023-03-26T13:40:02;5.85;;;2.55;;
30543;SDS011;43388;46.308;4.600;2023-03-26T13:42:33;6.07;;;2.75;;
30543;SDS011;43388;46.308;4.600;2023-03-26T13:45:13;8.45;;;3.03;;
30543;SDS011;43388;46.308;4.600;2023-03-26T13:47:41;5.40;;;2.95;;
30543;SDS011;43388;46.308;4.600;2023-03-26T13:53:05;7.10;;;3.20;;
30543;SDS011;43388;46.308;4.600;2023-03-26T13:55:33;6.80;;;3.40;;
30543;SDS011;43388;46.308;4.600;2023-03-26T14:00:43;4.70;;;2.40;;
30543;SDS011;43388;46.308;4.600;2023-03-26T14:03:47;5.47;;;2.38;;
30543;SDS011;43388;46.308;4.600;2023-03-26T14:06:05;3.40;;;2.35;;
30543;SDS011;43388;46.308;4.600;2023-03-26T14:08:37;3.53;;;2.20;;
30543;SDS011;43388;46.308;4.600;2023-03-26T14:11:09;3.55;;;2.85;;
30543;SDS011;43388;46.308;4.600;2023-03-26T14:13:50;7.72;;;2.53;;
30543;SDS011;43388;46.308;4.600;2023-03-26T14:16:23;4.32;;;2.15;;
30543;SDS011;43388;46.308;4.600;2023-03-26T14:18:55;3.20;;;2.15;;
30543;SDS011;43388;46.308;4.600;2023-03-26T14:21:46;3.28;;;2.13;;
30543;SDS011;43388;46.308;4.600;2023-03-26T14:47:20;5.70;;;2.80;;
30543;SDS011;43388;46.308;4.600;2023-03-26T14:49:50;3.90;;;2.40;;
30543;SDS011;43388;46.308;4.600;2023-03-26T14:55:01;4.90;;;3.05;;
30543;SDS011;43388;46.308;4.600;2023-03-26T15:37:07;5.55;;;2.08;;
30543;SDS011;43388;46.308;4.600;2023-03-26T15:43:21;11.55;;;8.95;;
30543;SDS011;43388;46.308;4.600;2023-03-26T15:47:50;5.00;;;2.70;;
30543;SDS011;43388;46.308;4.600;2023-03-26T16:02:48;4.45;;;2.15;;
30543;SDS011;43388;46.308;4.600;2023-03-26T16:15:48;2.88;;;1.77;;
30543;SDS011;43388;46.308;4.600;2023-03-26T16:18:18;4.95;;;2.08;;
30543;SDS011;43388;46.308;4.600;2023-03-26T16:20:51;3.05;;;2.08;;
30543;SDS011;43388;46.308;4.600;2023-03-26T16:25:55;3.22;;;2.67;;
30543;SDS011;43388;46.308;4.600;2023-03-26T16:31:34;4.90;;;2.60;;
30543;SDS011;43388;46.308;4.600;2023-03-26T16:36:14;9.20;;;5.70;;
30543;SDS011;43388;46.308;4.600;2023-03-26T16:41:25;5.82;;;3.55;;
30543;SDS011;43388;46.308;4.600;2023-03-26T16:44:02;4.93;;;2.90;;
30543;SDS011;43388;46.308;4.600;2023-03-26T17:04:37;4.47;;;2.03;;
30543;SDS011;43388;46.308;4.600;2023-03-26T17:30:31;6.28;;;3.85;;
30543;SDS011;43388;46.308;4.600;2023-03-26T17:35:45;4.75;;;2.97;;
30543;SDS011;43388;46.308;4.600;2023-03-26T17:40:54;3.95;;;2.90;;
30543;SDS011;43388;46.308;4.600;2023-03-26T17:48:56;4.27;;;3.07;;
30543;SDS011;43388;46.308;4.600;2023-03-26T17:51:37;5.03;;;2.28;;
30543;SDS011;43388;46.308;4.600;2023-03-26T17:54:05;8.77;;;2.20;;
30543;SDS011;43388;46.308;4.600;2023-03-26T17:56:32;5.03;;;2.38;;
30543;SDS011;43388;46.308;4.600;2023-03-26T17:58:59;3.90;;;1.73;;
30543;SDS011;43388;46.308;4.600;2023-03-26T18:01:36;3.13;;;2.10;;
30543;SDS011;43388;46.308;4.600;2023-03-26T18:04:03;3.75;;;1.77;;
30543;SDS011;43388;46.308;4.600;2023-03-26T18:14:39;1.88;;;1.75;;
30543;SDS011;43388;46.308;4.600;2023-03-26T18:17:08;2.72;;;2.00;;
30543;SDS011;43388;46.308;4.600;2023-03-26T18:19:44;3.38;;;1.85;;
30543;SDS011;43388;46.308;4.600;2023-03-26T18:22:11;3.92;;;2.40;;
30543;SDS011;43388;46.308;4.600;2023-03-26T18:24:42;3.28;;;2.22;;
30543;SDS011;43388;46.308;4.600;2023-03-26T18:27:10;5.05;;;2.15;;
30543;SDS011;43388;46.308;4.600;2023-03-26T18:29:37;2.08;;;1.83;;
30543;SDS011;43388;46.308;4.600;2023-03-26T18:34:33;2.03;;;1.75;;
30543;SDS011;43388;46.308;4.600;2023-03-26T18:44:48;2.25;;;1.45;;
30543;SDS011;43388;46.308;4.600;2023-03-26T18:47:15;2.35;;;2.15;;
30543;SDS011;43388;46.308;4.600;2023-03-26T18:49:45;1.63;;;1.52;;
30543;SDS011;43388;46.308;4.600;2023-03-26T18:52:15;2.35;;;1.98;;
30543;SDS011;43388;46.308;4.600;2023-03-26T18:54:42;1.98;;;1.58;;
30543;SDS011;43388;46.308;4.600;2023-03-26T18:57:15;2.05;;;1.95;;
30543;SDS011;43388;46.308;4.600;2023-03-26T18:59:44;1.75;;;1.65;;
30543;SDS011;43388;46.308;4.600;2023-03-26T19:02:13;1.90;;;1.80;;
30543;SDS011;43388;46.308;4.600;2023-03-26T19:04:40;8.90;;;1.77;;
30543;SDS011;43388;46.308;4.600;2023-03-26T19:07:10;1.63;;;1.52;;
30543;SDS011;43388;46.308;4.600;2023-03-26T19:09:37;1.80;;;1.70;;
30543;SDS011;43388;46.308;4.600;2023-03-26T19:12:12;1.90;;;1.83;;
30543;SDS011;43388;46.308;4.600;2023-03-26T19:17:25;1.58;;;1.55;;
30543;SDS011;43388;46.308;4.600;2023-03-26T19:19:52;1.67;;;1.58;;
30543;SDS011;43388;46.308;4.600;2023-03-26T19:22:19;1.98;;;1.88;;
30543;SDS011;43388;46.308;4.600;2023-03-26T19:24:45;1.42;;;1.42;;
30543;SDS011;43388;46.308;4.600;2023-03-26T19:27:11;1.75;;;1.65;;
30543;SDS011;43388;46.308;4.600;2023-03-26T19:29:37;1.50;;;1.50;;
30543;SDS011;43388;46.308;4.600;2023-03-26T19:32:12;1.75;;;1.65;;
30543;SDS011;43388;46.308;4.600;2023-03-26T19:37:19;1.52;;;1.50;;
30543;SDS011;43388;46.308;4.600;2023-03-26T19:39:47;1.95;;;1.83;;
30543;SDS011;43388;46.308;4.600;2023-03-26T19:44:44;1.85;;;1.80;;
30543;SDS011;43388;46.308;4.600;2023-03-26T19:47:23;1.40;;;1.40;;
30543;SDS011;43388;46.308;4.600;2023-03-26T19:57:15;1.50;;;1.50;;
30543;SDS011;43388;46.308;4.600;2023-03-26T19:59:41;2.08;;;1.98;;
30543;SDS011;43388;46.308;4.600;2023-03-26T20:02:10;1.70;;;1.70;;
30543;SDS011;43388;46.308;4.600;2023-03-26T20:04:37;1.75;;;1.75;;
30543;SDS011;43388;46.308;4.600;2023-03-26T20:07:36;1.35;;;1.35;;
30543;SDS011;43388;46.308;4.600;2023-03-26T20:09:55;1.50;;;1.50;;
30543;SDS011;43388;46.308;4.600;2023-03-26T20:12:22;1.45;;;1.45;;
30543;SDS011;43388;46.308;4.600;2023-03-26T20:14:48;1.67;;;1.67;;
30543;SDS011;43388;46.308;4.600;2023-03-26T20:17:15;1.70;;;1.60;;
30543;SDS011;43388;46.308;4.600;2023-03-26T20:19:41;2.25;;;1.60;;
30543;SDS011;43388;46.308;4.600;2023-03-26T20:22:17;1.63;;;1.63;;
30543;SDS011;43388;46.308;4.600;2023-03-26T20:24:44;2.17;;;2.08;;
30543;SDS011;43388;46.308;4.600;2023-03-26T20:27:11;1.40;;;1.40;;
30543;SDS011;43388;46.308;4.600;2023-03-26T20:29:40;1.55;;;1.55;;
30543;SDS011;43388;46.308;4.600;2023-03-26T20:32:17;1.80;;;1.70;;
30543;SDS011;43388;46.308;4.600;2023-03-26T20:34:43;1.75;;;1.73;;
30543;SDS011;43388;46.308;4.600;2023-03-26T20:37:09;1.40;;;1.40;;
30543;SDS011;43388;46.308;4.600;2023-03-26T20:39:35;11.52;;;2.17;;
30543;SDS011;43388;46.308;4.600;2023-03-26T20:42:01;1.50;;;1.50;;
30543;SDS011;43388;46.308;4.600;2023-03-26T20:44:28;1.63;;;1.52;;
30543;SDS011;43388;46.308;4.600;2023-03-26T20:46:54;1.52;;;1.52;;
30543;SDS011;43388;46.308;4.600;2023-03-26T20:49:22;1.20;;;1.20;;
30543;SDS011;43388;46.308;4.600;2023-03-26T20:51:49;1.50;;;1.50;;
30543;SDS011;43388;46.308;4.600;2023-03-26T20:54:22;1.52;;;1.52;;
30543;SDS011;43388;46.308;4.600;2023-03-26T20:56:48;1.30;;;1.30;;
30543;SDS011;43388;46.308;4.600;2023-03-26T20:59:18;1.98;;;1.88;;
30543;SDS011;43388;46.308;4.600;2023-03-26T21:01:45;1.45;;;1.35;;
30543;SDS011;43388;46.308;4.600;2023-03-26T21:04:12;1.73;;;1.63;;
30543;SDS011;43388;46.308;4.600;2023-03-26T21:06:38;1.63;;;1.55;;
30543;SDS011;43388;46.308;4.600;2023-03-26T21:09:04;2.08;;;1.98;;
30543;SDS011;43388;46.308;4.600;2023-03-26T21:14:24;3.03;;;1.93;;
30543;SDS011;43388;46.308;4.600;2023-03-26T21:16:51;1.90;;;1.80;;
30543;SDS011;43388;46.308;4.600;2023-03-26T21:19:17;2.22;;;1.95;;
30543;SDS011;43388;46.308;4.600;2023-03-26T21:21:58;1.80;;;1.70;;
30543;SDS011;43388;46.308;4.600;2023-03-26T21:30:11;1.75;;;1.65;;
30543;SDS011;43388;46.308;4.600;2023-03-26T21:32:41;1.95;;;1.85;;
30543;SDS011;43388;46.308;4.600;2023-03-26T21:35:08;1.63;;;1.63;;
30543;SDS011;43388;46.308;4.600;2023-03-26T21:37:34;1.85;;;1.75;;
30543;SDS011;43388;46.308;4.600;2023-03-26T21:40:01;1.40;;;1.40;;
30543;SDS011;43388;46.308;4.600;2023-03-26T21:42:38;1.83;;;1.80;;
30543;SDS011;43388;46.308;4.600;2023-03-26T21:45:04;1.63;;;1.60;;
30543;SDS011;43388;46.308;4.600;2023-03-26T21:47:30;2.17;;;2.08;;
30543;SDS011;43388;46.308;4.600;2023-03-26T21:49:57;1.77;;;1.77;;
30543;SDS011;43388;46.308;4.600;2023-03-26T21:52:23;1.85;;;1.75;;
30543;SDS011;43388;46.308;4.600;2023-03-26T21:54:49;2.00;;;1.90;;
30543;SDS011;43388;46.308;4.600;2023-03-26T22:00:07;1.45;;;1.45;;
30543;SDS011;43388;46.308;4.600;2023-03-26T22:08:23;2.03;;;1.98;;
30543;SDS011;43388;46.308;4.600;2023-03-26T22:10:51;2.10;;;2.00;;
30543;SDS011;43388;46.308;4.600;2023-03-26T22:13:17;2.33;;;2.22;;
30543;SDS011;43388;46.308;4.600;2023-03-26T22:15:43;6.18;;;2.15;;
30543;SDS011;43388;46.308;4.600;2023-03-26T22:18:10;2.33;;;2.22;;
30543;SDS011;43388;46.308;4.600;2023-03-26T22:20:36;2.20;;;2.10;;
30543;SDS011;43388;46.308;4.600;2023-03-26T22:23:02;2.20;;;2.10;;
30543;SDS011;43388;46.308;4.600;2023-03-26T22:25:29;2.13;;;2.03;;